Time;durP1;ratioP1;P1;durP2;ratioP2;P2;SDS_P1;SDS_P2;PMS_P1;PMS_P2;Temp;Humidity;BMP_temperature;BMP_pressure;BME280_temperature;BME280_humidity;BME280_pressure;Samples;Min_cycle;Max_cycle;Signal;HPM_P1;HPM_P2
2021/11/17 02:26:12;;;;;;;54.23;30.83;;;;;;;;;;5091942;28;20291;-78
2021/11/17 02:28:49;;;;;;;59.53;32.47;;;;;;;;;;5116125;27;20194;-78
2021/11/17 02:31:22;;;;;;;58.33;32.00;;;;;;;;;;5121320;27;20286;-79
2021/11/17 02:33:59;;;;;;;57.43;31.93;;;;;;;;;;5113481;28;20257;-78
2021/11/17 02:36:33;;;;;;;55.27;29.93;;;;;;;;;;5114270;28;20287;-78
2021/11/17 02:39:13;;;;;;;59.43;31.30;;;;;;;;;;5114345;28;20673;-78
2021/11/17 02:42:01;;;;;;;57.43;29.77;;;;;;;;;;5114874;28;20281;-79
2021/11/17 02:44:38;;;;;;;50.13;28.50;;;;;;;;;;5107949;28;20251;-79
2021/11/17 02:47:12;;;;;;;47.07;26.90;;;;;;;;;;5115475;27;20283;-79
2021/11/17 02:49:48;;;;;;;45.83;25.53;;;;;;;;;;5113538;27;20291;-78
2021/11/17 02:52:22;;;;;;;47.97;25.57;;;;;;;;;;5115486;27;20231;-78
2021/11/17 02:55:00;;;;;;;47.27;25.60;;;;;;;;;;5128707;27;20219;-79
2021/11/17 02:57:33;;;;;;;42.87;23.33;;;;;;;;;;5105907;28;20747;-79
2021/11/17 03:00:10;;;;;;;42.77;23.33;;;;;;;;;;5114398;27;20261;-78
2021/11/17 03:03:02;;;;;;;41.90;23.57;;;;;;;;;;5114337;28;20239;-79
2021/11/17 03:05:38;;;;;;;39.83;22.50;;;;;;;;;;5088617;27;20283;-78
2021/11/17 03:08:12;;;;;;;41.37;21.87;;;;;;;;;;5113311;28;20288;-78
2021/11/17 03:10:47;;;;;;;39.37;22.47;;;;;;;;;;5113585;28;20629;-79
2021/11/17 03:13:21;;;;;;;38.93;22.33;;;;;;;;;;5113794;28;20198;-79
2021/11/17 03:15:57;;;;;;;38.73;21.93;;;;;;;;;;5114066;28;20313;-79
2021/11/17 03:18:40;;;;;;;36.40;21.63;;;;;;;;;;5113241;28;20316;-78
2021/11/17 03:21:25;;;;;;;40.63;22.10;;;;;;;;;;5114266;28;20201;-78
2021/11/17 03:24:02;;;;;;;38.00;22.57;;;;;;;;;;5113857;28;20287;-79
2021/11/17 03:26:37;;;;;;;37.50;20.40;;;;;;;;;;5114054;28;20285;-78
2021/11/17 03:29:11;;;;;;;38.73;20.30;;;;;;;;;;5114626;28;20692;-78
2021/11/17 03:31:45;;;;;;;36.63;21.53;;;;;;;;;;5123595;27;20683;-79
2021/11/17 03:34:19;;;;;;;35.97;21.43;;;;;;;;;;5113749;28;20304;-79
2021/11/17 03:36:58;;;;;;;37.13;21.00;;;;;;;;;;5105720;28;20281;-78
2021/11/17 03:39:33;;;;;;;39.10;21.43;;;;;;;;;;5113100;28;20198;-79
2021/11/17 03:42:17;;;;;;;33.63;20.70;;;;;;;;;;5113473;28;20284;-78
2021/11/17 03:44:55;;;;;;;40.90;21.30;;;;;;;;;;5014671;28;20193;-79
2021/11/17 03:47:29;;;;;;;36.97;19.87;;;;;;;;;;5011236;28;20298;-78
2021/11/17 03:50:04;;;;;;;39.20;21.27;;;;;;;;;;5011308;28;20288;-79
2021/11/17 03:52:38;;;;;;;38.63;20.43;;;;;;;;;;5011219;28;20711;-79
2021/11/17 03:55:13;;;;;;;35.10;19.87;;;;;;;;;;5022860;28;20216;-78
2021/11/17 03:57:47;;;;;;;37.03;19.97;;;;;;;;;;5011627;28;20224;-78
2021/11/17 04:00:26;;;;;;;36.70;20.03;;;;;;;;;;5010773;28;20200;-78
2021/11/17 04:03:00;;;;;;;34.63;20.07;;;;;;;;;;5010523;28;20247;-78
2021/11/17 04:05:36;;;;;;;35.50;19.77;;;;;;;;;;5010841;28;20287;-78
2021/11/17 04:08:10;;;;;;;35.63;19.83;;;;;;;;;;5006519;28;20231;-78
2021/11/17 04:10:54;;;;;;;33.93;18.30;;;;;;;;;;5012345;28;20212;-78
2021/11/17 04:13:25;;;;;;;36.50;19.43;;;;;;;;;;5015933;28;20228;-78
2021/11/17 04:16:00;;;;;;;35.93;19.33;;;;;;;;;;5009831;28;20225;-78
2021/11/17 04:18:34;;;;;;;32.07;19.40;;;;;;;;;;5010531;28;20263;-78
2021/11/17 04:21:09;;;;;;;33.03;19.80;;;;;;;;;;5023004;28;20232;-78
2021/11/17 04:23:42;;;;;;;34.40;20.03;;;;;;;;;;5113750;28;20279;-78
2021/11/17 04:26:17;;;;;;;36.03;20.10;;;;;;;;;;5123994;27;20228;-78
2021/11/17 04:28:51;;;;;;;34.50;19.33;;;;;;;;;;5118286;27;20652;-78
2021/11/17 04:31:36;;;;;;;39.70;20.83;;;;;;;;;;5112608;28;20608;-78
2021/11/17 04:34:21;;;;;;;37.63;20.17;;;;;;;;;;5112199;28;20211;-78
2021/11/17 04:37:06;;;;;;;41.10;21.47;;;;;;;;;;5111879;27;20280;-78
2021/11/17 04:39:40;;;;;;;37.03;20.73;;;;;;;;;;5112039;28;20694;-78
2021/11/17 04:42:15;;;;;;;38.37;21.30;;;;;;;;;;5112238;28;20347;-78
2021/11/17 04:44:48;;;;;;;37.33;19.87;;;;;;;;;;5103766;28;20224;-78
2021/11/17 04:47:29;;;;;;;30.63;18.73;;;;;;;;;;5112686;28;20280;-78
2021/11/17 04:50:07;;;;;;;31.23;17.07;;;;;;;;;;5111963;28;20207;-78
2021/11/17 04:52:41;;;;;;;29.77;17.13;;;;;;;;;;5112716;28;20221;-78
2021/11/17 04:55:18;;;;;;;26.23;16.20;;;;;;;;;;5112063;28;20300;-78
2021/11/17 04:57:55;;;;;;;27.03;16.53;;;;;;;;;;5112790;28;20193;-78
2021/11/17 05:00:37;;;;;;;31.10;17.77;;;;;;;;;;5111738;28;20225;-79
2021/11/17 05:03:11;;;;;;;31.03;18.27;;;;;;;;;;5090780;28;20660;-78
2021/11/17 05:05:45;;;;;;;31.87;18.33;;;;;;;;;;5112159;28;20283;-78
2021/11/17 05:08:17;;;;;;;35.60;19.17;;;;;;;;;;5111268;28;20284;-78
2021/11/17 05:10:49;;;;;;;34.50;18.73;;;;;;;;;;5118939;27;20633;-79
2021/11/17 05:13:25;;;;;;;32.27;17.50;;;;;;;;;;5110331;28;20212;-78
2021/11/17 05:15:58;;;;;;;32.40;18.73;;;;;;;;;;5111805;28;20319;-78
2021/11/17 05:18:30;;;;;;;32.07;18.43;;;;;;;;;;5110640;28;20320;-79
2021/11/17 05:21:03;;;;;;;35.67;18.13;;;;;;;;;;5111521;28;20225;-78
2021/11/17 05:23:40;;;;;;;33.93;18.57;;;;;;;;;;5111391;28;20189;-78
2021/11/17 05:26:14;;;;;;;41.03;19.87;;;;;;;;;;5112009;28;20584;-78
2021/11/17 05:28:48;;;;;;;34.47;19.00;;;;;;;;;;5098947;28;20283;-79
2021/11/17 05:31:23;;;;;;;36.10;18.60;;;;;;;;;;5111665;28;20283;-79
2021/11/17 05:33:58;;;;;;;32.70;17.27;;;;;;;;;;5111844;28;20243;-78
2021/11/17 05:36:30;;;;;;;36.23;19.47;;;;;;;;;;5111102;28;20315;-78
2021/11/17 05:39:04;;;;;;;37.23;20.17;;;;;;;;;;5112149;28;20284;-78
2021/11/17 05:41:46;;;;;;;36.23;20.37;;;;;;;;;;5111267;28;20227;-79
2021/11/17 05:44:29;;;;;;;36.37;19.97;;;;;;;;;;5111907;28;20574;-78
2021/11/17 05:47:04;;;;;;;35.73;19.93;;;;;;;;;;5097086;28;20232;-78
2021/11/17 05:49:38;;;;;;;39.30;20.50;;;;;;;;;;5111902;28;20282;-78
2021/11/17 05:52:14;;;;;;;37.03;19.47;;;;;;;;;;5111758;28;20676;-78
2021/11/17 05:54:47;;;;;;;36.00;18.70;;;;;;;;;;5111470;28;21443;-79
2021/11/17 05:57:27;;;;;;;36.47;18.73;;;;;;;;;;5111242;28;20277;-79
2021/11/17 06:00:01;;;;;;;34.63;17.67;;;;;;;;;;5132171;28;20225;-78
2021/11/17 06:03:02;;;;;;;29.87;16.80;;;;;;;;;;5113227;28;20210;-78
2021/11/17 06:05:29;;;;;;;29.43;16.03;;;;;;;;;;5111895;28;20303;-77
2021/11/17 06:07:56;;;;;;;28.87;15.83;;;;;;;;;;5111577;28;20273;-79
2021/11/17 06:10:27;;;;;;;31.27;15.57;;;;;;;;;;5111832;28;20195;-76
2021/11/17 06:12:54;;;;;;;30.60;16.20;;;;;;;;;;5110268;28;20221;-78
2021/11/17 06:15:21;;;;;;;32.20;17.47;;;;;;;;;;5111500;28;20263;-78
2021/11/17 06:17:50;;;;;;;33.73;16.87;;;;;;;;;;5110761;28;20335;-79
2021/11/17 06:20:18;;;;;;;32.33;17.87;;;;;;;;;;5111867;28;20233;-79
2021/11/17 06:22:47;;;;;;;40.33;19.80;;;;;;;;;;5114774;28;20227;-78
2021/11/17 06:25:15;;;;;;;39.43;20.27;;;;;;;;;;5115074;28;20234;-78
2021/11/17 06:27:44;;;;;;;36.03;18.63;;;;;;;;;;5114901;28;20678;-79
2021/11/17 06:30:12;;;;;;;35.80;17.70;;;;;;;;;;5113982;28;20297;-79
2021/11/17 06:32:40;;;;;;;37.13;17.93;;;;;;;;;;5116689;27;20200;-78
2021/11/17 06:35:10;;;;;;;37.63;16.93;;;;;;;;;;5114351;28;20648;-79
2021/11/17 06:37:37;;;;;;;35.00;16.77;;;;;;;;;;5129037;27;20223;-79
2021/11/17 06:40:06;;;;;;;33.90;16.33;;;;;;;;;;5129984;27;20712;-79
2021/11/17 06:42:35;;;;;;;37.00;16.70;;;;;;;;;;5114273;27;20619;-79
2021/11/17 06:45:05;;;;;;;34.50;15.97;;;;;;;;;;5114706;27;20201;-80
2021/11/17 06:47:33;;;;;;;31.17;15.53;;;;;;;;;;5113471;27;20292;-79
2021/11/17 06:50:00;;;;;;;35.07;16.60;;;;;;;;;;5115887;27;20672;-79
2021/11/17 06:52:27;;;;;;;34.47;16.07;;;;;;;;;;5112886;27;20287;-79
2021/11/17 06:54:54;;;;;;;34.30;16.53;;;;;;;;;;5114098;28;20280;-80
2021/11/17 06:57:22;;;;;;;28.27;15.80;;;;;;;;;;5113332;27;20285;-79
2021/11/17 06:59:50;;;;;;;32.90;16.37;;;;;;;;;;5113781;28;20230;-79
2021/11/17 07:02:18;;;;;;;31.10;17.37;;;;;;;;;;5113883;28;20192;-79
2021/11/17 07:04:45;;;;;;;29.93;16.07;;;;;;;;;;5113933;28;20230;-79
2021/11/17 07:07:14;;;;;;;29.73;16.60;;;;;;;;;;5113617;28;20228;-80
2021/11/17 07:09:41;;;;;;;30.63;16.03;;;;;;;;;;5113208;28;20286;-79
2021/11/17 07:12:09;;;;;;;34.67;16.93;;;;;;;;;;5113648;28;20285;-79
2021/11/17 07:14:36;;;;;;;30.67;16.67;;;;;;;;;;5115279;27;20657;-79
2021/11/17 07:17:04;;;;;;;33.27;17.03;;;;;;;;;;5114053;28;20243;-79
2021/11/17 07:19:32;;;;;;;29.20;15.73;;;;;;;;;;5113556;28;20318;-79
2021/11/17 07:22:01;;;;;;;28.70;15.83;;;;;;;;;;5106350;28;20272;-79
2021/11/17 07:24:29;;;;;;;29.23;16.73;;;;;;;;;;5113105;27;20198;-78
2021/11/17 07:26:56;;;;;;;32.63;17.67;;;;;;;;;;5112857;28;20279;-79
2021/11/17 07:29:24;;;;;;;33.43;18.07;;;;;;;;;;5113527;28;20739;-79
2021/11/17 07:31:51;;;;;;;33.57;18.87;;;;;;;;;;5111565;28;20228;-78
2021/11/17 07:34:18;;;;;;;36.00;18.03;;;;;;;;;;5121738;27;20278;-79
2021/11/17 07:36:48;;;;;;;32.67;18.07;;;;;;;;;;5112886;28;20302;-78
2021/11/17 07:39:17;;;;;;;38.33;19.10;;;;;;;;;;5113603;28;20285;-78
2021/11/17 07:41:44;;;;;;;36.97;18.73;;;;;;;;;;5113575;28;20275;-78
2021/11/17 07:44:14;;;;;;;30.27;17.60;;;;;;;;;;5113003;28;20279;-78
2021/11/17 07:46:41;;;;;;;34.40;19.03;;;;;;;;;;5113490;28;20277;-78
2021/11/17 07:49:09;;;;;;;33.03;17.97;;;;;;;;;;5112508;28;20326;-79
2021/11/17 07:51:36;;;;;;;37.93;19.83;;;;;;;;;;5117514;27;20291;-78
2021/11/17 07:54:04;;;;;;;38.03;20.70;;;;;;;;;;5117600;27;20290;-79
2021/11/17 07:56:32;;;;;;;43.90;21.30;;;;;;;;;;5113135;28;20303;-78
2021/11/17 07:59:00;;;;;;;41.27;21.50;;;;;;;;;;5112690;28;20286;-79
2021/11/17 08:01:28;;;;;;;38.50;21.17;;;;;;;;;;5112660;27;20229;-79
2021/11/17 08:03:55;;;;;;;36.67;20.57;;;;;;;;;;5112599;28;20229;-79
2021/11/17 08:06:23;;;;;;;34.93;20.40;;;;;;;;;;5112270;28;20197;-79
2021/11/17 08:08:52;;;;;;;35.07;19.73;;;;;;;;;;5112841;28;20621;-78
2021/11/17 08:11:21;;;;;;;30.63;17.90;;;;;;;;;;5112196;28;20211;-79
2021/11/17 08:13:49;;;;;;;26.73;17.07;;;;;;;;;;5112118;28;20352;-78
2021/11/17 08:16:16;;;;;;;28.03;16.97;;;;;;;;;;5112558;28;20592;-78
2021/11/17 08:18:44;;;;;;;28.57;17.23;;;;;;;;;;5111965;28;20824;-79
2021/11/17 08:21:12;;;;;;;25.00;16.70;;;;;;;;;;5112125;28;20643;-79
2021/11/17 08:23:39;;;;;;;26.73;16.27;;;;;;;;;;5104262;28;20194;-79
2021/11/17 08:26:07;;;;;;;26.27;16.03;;;;;;;;;;5112775;28;20220;-78
2021/11/17 08:28:36;;;;;;;26.73;17.07;;;;;;;;;;5111921;28;20287;-79
2021/11/17 08:31:03;;;;;;;27.90;17.03;;;;;;;;;;5112396;28;20311;-79
2021/11/17 08:33:30;;;;;;;27.53;18.27;;;;;;;;;;5111744;27;20235;-78
2021/11/17 08:36:00;;;;;;;28.90;18.17;;;;;;;;;;5112325;28;20248;-78
2021/11/17 08:38:27;;;;;;;29.57;18.90;;;;;;;;;;5111254;28;20576;-79
2021/11/17 08:40:55;;;;;;;26.30;17.97;;;;;;;;;;5111835;28;20699;-79
2021/11/17 08:43:23;;;;;;;26.03;17.30;;;;;;;;;;5111762;28;20202;-79
2021/11/17 08:45:53;;;;;;;24.33;17.37;;;;;;;;;;5111726;28;20280;-79
2021/11/17 08:48:21;;;;;;;28.43;17.70;;;;;;;;;;5112250;28;20198;-78
2021/11/17 08:50:48;;;;;;;28.00;17.73;;;;;;;;;;5111740;28;20284;-79
2021/11/17 08:53:18;;;;;;;22.00;14.80;;;;;;;;;;5111689;28;20676;-79
2021/11/17 08:55:45;;;;;;;20.63;14.73;;;;;;;;;;5113342;28;20225;-78
2021/11/17 08:58:12;;;;;;;21.57;14.13;;;;;;;;;;5111526;28;20239;-79
2021/11/17 09:00:40;;;;;;;18.57;13.27;;;;;;;;;;5110681;28;20233;-79
2021/11/17 09:03:09;;;;;;;18.93;13.53;;;;;;;;;;5104040;28;20614;-79
2021/11/17 09:05:38;;;;;;;16.10;11.50;;;;;;;;;;5111834;28;20377;-79
2021/11/17 09:08:06;;;;;;;17.90;12.63;;;;;;;;;;5110629;28;20743;-79
2021/11/17 09:10:34;;;;;;;16.50;10.10;;;;;;;;;;5110485;27;20276;-79
2021/11/17 09:13:01;;;;;;;16.43;10.33;;;;;;;;;;5110935;28;20224;-79
2021/11/17 09:15:30;;;;;;;12.63;9.97;;;;;;;;;;5110757;28;20237;-79
2021/11/17 09:17:57;;;;;;;14.40;9.97;;;;;;;;;;5110744;28;20312;-79
2021/11/17 09:20:26;;;;;;;14.10;9.20;;;;;;;;;;5111075;28;20225;-79
2021/11/17 09:22:54;;;;;;;14.50;9.80;;;;;;;;;;5110586;28;20281;-78
2021/11/17 09:25:23;;;;;;;13.00;9.43;;;;;;;;;;5117587;28;20225;-79
2021/11/17 09:27:50;;;;;;;14.13;10.23;;;;;;;;;;5111820;28;20277;-79
2021/11/17 09:30:19;;;;;;;15.37;10.23;;;;;;;;;;5110605;28;20240;-79
2021/11/17 09:32:46;;;;;;;17.80;12.60;;;;;;;;;;5111801;28;20189;-79
2021/11/17 09:35:14;;;;;;;17.53;12.90;;;;;;;;;;5110592;28;20289;-79
2021/11/17 09:37:44;;;;;;;17.53;13.00;;;;;;;;;;5111371;28;20220;-79
2021/11/17 09:40:13;;;;;;;20.50;13.50;;;;;;;;;;5110244;28;20293;-79
2021/11/17 09:42:40;;;;;;;17.30;13.33;;;;;;;;;;5111050;28;20692;-79
2021/11/17 09:45:09;;;;;;;17.53;12.97;;;;;;;;;;5111346;28;20289;-79
2021/11/17 09:47:38;;;;;;;18.67;12.17;;;;;;;;;;5111173;28;20644;-79
2021/11/17 09:50:08;;;;;;;17.27;11.60;;;;;;;;;;5110931;28;20288;-79
2021/11/17 09:52:36;;;;;;;14.87;11.63;;;;;;;;;;5110748;28;20205;-79
2021/11/17 09:55:07;;;;;;;14.23;11.20;;;;;;;;;;5112366;28;20642;-79
2021/11/17 09:57:38;;;;;;;11.00;7.77;;;;;;;;;;5115586;27;20313;-79
2021/11/17 10:00:09;;;;;;;13.10;7.07;;;;;;;;;;5115384;28;20660;-79
2021/11/17 10:02:39;;;;;;;10.27;6.77;;;;;;;;;;5114610;28;20233;-79
2021/11/17 10:05:09;;;;;;;11.53;7.50;;;;;;;;;;5115361;28;20251;-79
2021/11/17 10:13:17;;;;;;;13.20;9.37;;;;;;;;;;5108037;27;20206;-79
2021/11/17 10:15:46;;;;;;;15.67;10.80;;;;;;;;;;5115290;28;20220;-79
2021/11/17 10:18:32;;;;;;;16.83;10.80;;;;;;;;;;5114496;28;20257;-79
2021/11/17 10:21:04;;;;;;;12.30;8.60;;;;;;;;;;5115844;28;20280;-79
2021/11/17 10:23:32;;;;;;;14.37;9.40;;;;;;;;;;5115500;28;20296;-79
2021/11/17 10:26:08;;;;;;;13.97;9.33;;;;;;;;;;5117150;27;20620;-79
2021/11/17 10:28:42;;;;;;;13.10;8.80;;;;;;;;;;5113977;28;20288;-80
2021/11/17 10:31:11;;;;;;;13.47;8.13;;;;;;;;;;5118471;27;20216;-79
2021/11/17 10:33:45;;;;;;;12.07;8.20;;;;;;;;;;5125601;27;20200;-79
2021/11/17 10:36:18;;;;;;;11.87;8.20;;;;;;;;;;5114656;28;20229;-79
2021/11/17 10:38:47;;;;;;;11.67;8.33;;;;;;;;;;5114030;28;20229;-79
2021/11/17 10:41:21;;;;;;;10.90;8.07;;;;;;;;;;5126131;27;20277;-79
2021/11/17 10:43:54;;;;;;;14.43;7.30;;;;;;;;;;5114299;27;20285;-79
2021/11/17 10:46:22;;;;;;;11.60;7.87;;;;;;;;;;5114887;28;20228;-79
2021/11/17 10:48:52;;;;;;;8.73;6.97;;;;;;;;;;5113592;28;20233;-79
2021/11/17 10:51:20;;;;;;;9.60;7.07;;;;;;;;;;5114606;28;20292;-79
2021/11/17 10:53:49;;;;;;;9.17;6.73;;;;;;;;;;5112991;28;20293;-79
2021/11/17 10:56:17;;;;;;;8.40;6.37;;;;;;;;;;5113690;28;20293;-79
2021/11/17 10:58:48;;;;;;;10.07;6.20;;;;;;;;;;5114043;28;20289;-79
2021/11/17 11:01:16;;;;;;;11.73;6.00;;;;;;;;;;5113633;28;20736;-79
2021/11/17 11:03:46;;;;;;;9.07;6.20;;;;;;;;;;5113764;27;20237;-79
2021/11/17 11:06:15;;;;;;;8.43;6.00;;;;;;;;;;5113279;28;20284;-79
2021/11/17 11:08:44;;;;;;;8.77;5.90;;;;;;;;;;5113992;28;20277;-79
2021/11/17 11:11:12;;;;;;;6.77;5.13;;;;;;;;;;5113046;28;20197;-80
2021/11/17 11:13:42;;;;;;;6.30;5.00;;;;;;;;;;5119382;27;20201;-79
2021/11/17 11:16:14;;;;;;;5.40;4.83;;;;;;;;;;5113454;28;20289;-79
2021/11/17 11:18:43;;;;;;;7.07;4.50;;;;;;;;;;5113338;28;20966;-79
2021/11/17 11:21:12;;;;;;;7.17;4.27;;;;;;;;;;5113117;28;20244;-79
2021/11/17 11:24:03;;;;;;;6.47;4.53;;;;;;;;;;5113806;28;20286;-80
2021/11/17 11:26:52;;;;;;;7.20;4.50;;;;;;;;;;5113340;27;20201;-79
2021/11/17 11:29:22;;;;;;;6.30;4.73;;;;;;;;;;5112972;28;20225;-79
2021/11/17 11:31:50;;;;;;;7.03;4.97;;;;;;;;;;5113461;28;20194;-80
2021/11/17 11:34:44;;;;;;;5.43;3.80;;;;;;;;;;5113339;27;20792;-79
2021/11/17 11:37:13;;;;;;;4.83;3.70;;;;;;;;;;5030576;28;20247;-79
2021/11/17 11:39:42;;;;;;;3.80;3.30;;;;;;;;;;5030655;28;20280;-79
2021/11/17 11:42:32;;;;;;;6.23;4.10;;;;;;;;;;5030585;28;20283;-79
2021/11/17 11:45:02;;;;;;;6.30;4.10;;;;;;;;;;5029690;28;20206;-79
2021/11/17 11:47:35;;;;;;;6.63;4.20;;;;;;;;;;5029646;28;20295;-79
2021/11/17 11:50:05;;;;;;;4.97;3.70;;;;;;;;;;5030379;28;20236;-80
2021/11/17 11:52:33;;;;;;;3.77;3.20;;;;;;;;;;5029376;28;20239;-79
2021/11/17 11:55:15;;;;;;;4.30;3.00;;;;;;;;;;5029974;28;20283;-79
2021/11/17 11:57:44;;;;;;;3.77;3.17;;;;;;;;;;5028215;28;20311;-79
2021/11/17 12:00:16;;;;;;;4.97;3.63;;;;;;;;;;5029518;28;20311;-80
2021/11/17 12:02:46;;;;;;;3.57;2.93;;;;;;;;;;5029743;28;20235;-80
2021/11/17 12:05:14;;;;;;;3.80;2.53;;;;;;;;;;5030100;28;20232;-80
2021/11/17 12:07:43;;;;;;;4.00;2.60;;;;;;;;;;5029081;28;20777;-79
2021/11/17 12:10:12;;;;;;;4.93;3.30;;;;;;;;;;5045082;28;21100;-80
2021/11/17 12:12:40;;;;;;;4.57;2.87;;;;;;;;;;5060275;28;20194;-79
2021/11/17 12:15:26;;;;;;;3.40;2.97;;;;;;;;;;5111795;28;20221;-80
2021/11/17 12:18:06;;;;;;;3.47;2.67;;;;;;;;;;5113447;27;20263;-80
2021/11/17 12:20:35;;;;;;;4.13;2.60;;;;;;;;;;5109451;27;20304;-79
2021/11/17 12:23:13;;;;;;;4.97;3.30;;;;;;;;;;5118045;27;20201;-79
2021/11/17 12:25:40;;;;;;;4.43;3.17;;;;;;;;;;5120920;27;20280;-80
2021/11/17 12:28:08;;;;;;;5.73;3.43;;;;;;;;;;5110670;28;20225;-80
2021/11/17 12:30:41;;;;;;;5.60;4.27;;;;;;;;;;5111208;28;20618;-79
2021/11/17 12:33:13;;;;;;;5.23;4.17;;;;;;;;;;5112063;28;20288;-79
2021/11/17 12:35:42;;;;;;;6.50;4.60;;;;;;;;;;5106268;28;20208;-79
2021/11/17 12:38:11;;;;;;;4.53;3.90;;;;;;;;;;5116285;27;20301;-80
2021/11/17 12:40:41;;;;;;;6.27;4.00;;;;;;;;;;5111484;28;20361;-80
2021/11/17 12:43:09;;;;;;;5.97;4.40;;;;;;;;;;5112897;28;20684;-79
2021/11/17 12:45:59;;;;;;;5.97;4.60;;;;;;;;;;5116318;27;20576;-78
2021/11/17 12:48:29;;;;;;;6.20;4.27;;;;;;;;;;5110950;28;20225;-79
2021/11/17 12:50:58;;;;;;;6.20;5.43;;;;;;;;;;5111448;28;20379;-79
2021/11/17 12:53:27;;;;;;;8.23;5.10;;;;;;;;;;5112781;28;20197;-79
2021/11/17 12:55:57;;;;;;;9.63;5.80;;;;;;;;;;5103930;28;20626;-79
2021/11/17 12:58:26;;;;;;;5.87;5.27;;;;;;;;;;5114595;27;20308;-79
2021/11/17 13:00:57;;;;;;;7.03;5.73;;;;;;;;;;5111577;28;20240;-79
2021/11/17 13:03:36;;;;;;;9.57;6.37;;;;;;;;;;5123944;27;20643;-79
2021/11/17 13:06:10;;;;;;;8.47;6.73;;;;;;;;;;5104366;28;20197;-79
2021/11/17 13:08:38;;;;;;;8.70;7.07;;;;;;;;;;5110995;28;20637;-79
2021/11/17 13:11:13;;;;;;;9.97;7.67;;;;;;;;;;5111261;28;20284;-79
2021/11/17 13:13:41;;;;;;;9.27;7.97;;;;;;;;;;5107919;28;20192;-79
2021/11/17 13:16:13;;;;;;;8.93;7.23;;;;;;;;;;5111098;28;20228;-79
2021/11/17 13:18:51;;;;;;;5.63;4.80;;;;;;;;;;5107264;28;20314;-79
2021/11/17 13:21:28;;;;;;;4.43;4.00;;;;;;;;;;5111238;28;20288;-79
2021/11/17 13:24:03;;;;;;;5.10;3.77;;;;;;;;;;5110316;28;20247;-79
2021/11/17 13:26:33;;;;;;;5.17;4.37;;;;;;;;;;5110559;28;20280;-79
2021/11/17 13:29:15;;;;;;;6.70;4.10;;;;;;;;;;5111544;28;20744;-79
2021/11/17 13:31:44;;;;;;;5.90;4.97;;;;;;;;;;5120597;27;20235;-79
2021/11/17 13:34:12;;;;;;;6.00;5.17;;;;;;;;;;5116759;27;20201;-79
2021/11/17 13:36:49;;;;;;;6.07;4.80;;;;;;;;;;5109046;28;20285;-79
2021/11/17 13:39:18;;;;;;;7.20;5.53;;;;;;;;;;5120698;27;20449;-77
2021/11/17 13:41:45;;;;;;;10.13;7.43;;;;;;;;;;5109307;28;20221;-78
2021/11/17 13:44:13;;;;;;;7.87;6.07;;;;;;;;;;5114702;28;20688;-78
2021/11/17 13:46:52;;;;;;;6.30;5.70;;;;;;;;;;5115067;28;20648;-78
2021/11/17 13:49:19;;;;;;;7.03;6.10;;;;;;;;;;5119728;27;20393;-78
2021/11/17 13:51:46;;;;;;;10.67;7.83;;;;;;;;;;5114877;27;20284;-78
2021/11/17 13:54:13;;;;;;;7.93;7.13;;;;;;;;;;5113937;28;20288;-78
2021/11/17 13:56:41;;;;;;;8.63;6.20;;;;;;;;;;5114608;28;20225;-79
2021/11/17 13:59:09;;;;;;;8.93;8.03;;;;;;;;;;5115202;28;20305;-78
2021/11/17 14:01:36;;;;;;;8.30;7.40;;;;;;;;;;5113876;28;20201;-78
2021/11/17 14:04:05;;;;;;;10.83;9.73;;;;;;;;;;5114913;28;20205;-78
2021/11/17 14:06:32;;;;;;;7.00;6.30;;;;;;;;;;5115097;28;20200;-79
2021/11/17 14:08:59;;;;;;;6.33;5.73;;;;;;;;;;5115739;28;20232;-78
2021/11/17 14:11:29;;;;;;;42.80;31.93;;;;;;;;;;5114851;28;20222;-79
2021/11/17 14:13:56;;;;;;;23.70;16.93;;;;;;;;;;5114915;28;20220;-78
2021/11/17 14:16:24;;;;;;;66.23;44.07;;;;;;;;;;5118216;27;20280;-79
2021/11/17 14:18:51;;;;;;;17.07;12.10;;;;;;;;;;5114289;27;20680;-78
2021/11/17 14:21:20;;;;;;;67.53;45.60;;;;;;;;;;5114085;27;20205;-78
2021/11/17 14:23:48;;;;;;;5.27;4.10;;;;;;;;;;5113900;28;20201;-78
2021/11/17 14:26:16;;;;;;;3.90;2.93;;;;;;;;;;5113744;28;20285;-78
2021/11/17 14:28:46;;;;;;;4.87;3.03;;;;;;;;;;5114040;27;20205;-78
2021/11/17 14:31:14;;;;;;;21.97;13.37;;;;;;;;;;5119887;27;20202;-78
2021/11/17 14:33:44;;;;;;;17.90;11.13;;;;;;;;;;5121735;27;20213;-78
2021/11/17 14:36:12;;;;;;;69.80;37.60;;;;;;;;;;5114049;27;20272;-78
2021/11/17 14:38:41;;;;;;;29.30;18.17;;;;;;;;;;5114000;28;20260;-79
2021/11/17 14:41:08;;;;;;;14.87;8.20;;;;;;;;;;5112783;28;20288;-78
2021/11/17 14:43:35;;;;;;;25.53;15.90;;;;;;;;;;5082605;28;20281;-78
2021/11/17 14:46:02;;;;;;;7.17;5.13;;;;;;;;;;5114449;28;20289;-78
2021/11/17 14:48:32;;;;;;;12.13;7.63;;;;;;;;;;5114002;28;20276;-78
2021/11/17 14:50:59;;;;;;;2.97;1.70;;;;;;;;;;5111039;28;20219;-78
2021/11/17 14:53:27;;;;;;;4.27;2.80;;;;;;;;;;5114188;28;20190;-78
2021/11/17 14:55:55;;;;;;;5.00;2.90;;;;;;;;;;5113797;28;20573;-78
2021/11/17 14:58:22;;;;;;;5.90;1.93;;;;;;;;;;5113370;28;20304;-78
2021/11/17 15:00:51;;;;;;;7.63;2.10;;;;;;;;;;5114041;27;20221;-78
2021/11/17 15:03:18;;;;;;;8.87;3.13;;;;;;;;;;5113380;28;20309;-78
2021/11/17 15:05:45;;;;;;;5.27;1.93;;;;;;;;;;5113525;28;20281;-77
2021/11/17 15:08:12;;;;;;;4.03;1.50;;;;;;;;;;5113243;27;20200;-77
2021/11/17 15:10:40;;;;;;;7.63;1.30;;;;;;;;;;5113102;28;20288;-78
2021/11/17 15:13:09;;;;;;;5.17;1.57;;;;;;;;;;5113567;28;20236;-78
2021/11/17 15:15:37;;;;;;;7.53;1.97;;;;;;;;;;5113527;28;20297;-79
2021/11/17 15:18:05;;;;;;;17.83;8.20;;;;;;;;;;5113715;27;20268;-78
2021/11/17 15:20:32;;;;;;;23.23;15.07;;;;;;;;;;5111500;27;20285;-78
2021/11/17 15:23:00;;;;;;;9.13;3.40;;;;;;;;;;5111565;28;20635;-79
2021/11/17 15:25:29;;;;;;;8.47;6.27;;;;;;;;;;5111179;27;20280;-78
2021/11/17 15:27:57;;;;;;;9.53;6.50;;;;;;;;;;5112420;27;20280;-78
2021/11/17 15:30:27;;;;;;;10.37;4.73;;;;;;;;;;5113655;27;20281;-78
2021/11/17 15:32:55;;;;;;;5.13;2.00;;;;;;;;;;5113075;27;20339;-79
2021/11/17 15:35:23;;;;;;;6.87;1.60;;;;;;;;;;5111857;28;20709;-78
2021/11/17 15:37:51;;;;;;;8.93;2.23;;;;;;;;;;5115138;27;20241;-78
2021/11/17 15:40:20;;;;;;;6.50;1.60;;;;;;;;;;5107496;27;20198;-78
2021/11/17 15:42:47;;;;;;;7.53;1.90;;;;;;;;;;5112827;27;20221;-78
2021/11/17 15:45:15;;;;;;;6.47;2.20;;;;;;;;;;5120086;27;20297;-78
2021/11/17 15:47:43;;;;;;;7.03;2.40;;;;;;;;;;5113940;27;20229;-78
2021/11/17 15:50:12;;;;;;;9.50;2.10;;;;;;;;;;5118678;27;20236;-78
2021/11/17 15:52:40;;;;;;;6.93;2.63;;;;;;;;;;5111272;28;20281;-77
2021/11/17 15:55:07;;;;;;;6.13;2.30;;;;;;;;;;5112347;28;20221;-78
2021/11/17 15:57:35;;;;;;;6.83;2.57;;;;;;;;;;5112282;27;20280;-78
2021/11/17 16:00:03;;;;;;;8.27;2.53;;;;;;;;;;5112445;28;20306;-78
2021/11/17 16:02:30;;;;;;;7.67;2.57;;;;;;;;;;5113005;28;20284;-78
2021/11/17 16:04:58;;;;;;;10.13;2.90;;;;;;;;;;5118931;27;20241;-78
2021/11/17 16:07:25;;;;;;;13.20;4.70;;;;;;;;;;5111932;28;20230;-78
2021/11/17 16:09:55;;;;;;;10.37;4.37;;;;;;;;;;5114030;27;20200;-78
2021/11/17 16:12:22;;;;;;;8.60;4.47;;;;;;;;;;5114584;27;20285;-78
2021/11/17 16:14:50;;;;;;;9.23;3.73;;;;;;;;;;5129774;27;20221;-78
2021/11/17 16:17:18;;;;;;;8.83;3.60;;;;;;;;;;5114155;27;20229;-77
2021/11/17 16:19:48;;;;;;;10.10;4.27;;;;;;;;;;5111153;28;20319;-77
2021/11/17 16:22:20;;;;;;;12.03;4.40;;;;;;;;;;5117472;27;20602;-77
2021/11/17 16:27:32;;;;;;;10.87;4.00;;;;;;;;;;5107880;27;20200;-77
2021/11/17 16:29:59;;;;;;;13.93;4.87;;;;;;;;;;5108410;28;20285;-76
2021/11/17 16:32:27;;;;;;;12.27;4.63;;;;;;;;;;5104612;28;20289;-77
2021/11/17 16:34:54;;;;;;;10.73;4.80;;;;;;;;;;5112937;27;20977;-77
2021/11/17 16:37:24;;;;;;;14.83;5.30;;;;;;;;;;5102482;28;20284;-77
2021/11/17 16:39:51;;;;;;;10.03;4.50;;;;;;;;;;5113059;27;20311;-77
2021/11/17 16:42:19;;;;;;;11.47;4.60;;;;;;;;;;5111580;28;20293;-77
2021/11/17 16:44:46;;;;;;;21.17;5.77;;;;;;;;;;5103585;27;20217;-77
2021/11/17 16:47:14;;;;;;;10.27;5.00;;;;;;;;;;5117539;27;20291;-77
2021/11/17 16:49:43;;;;;;;9.73;5.33;;;;;;;;;;5110356;28;20190;-77
2021/11/17 16:52:16;;;;;;;14.93;5.93;;;;;;;;;;5106939;28;20309;-77
2021/11/17 16:54:51;;;;;;;11.47;5.73;;;;;;;;;;5109456;28;20193;-78
2021/11/17 16:57:18;;;;;;;14.77;6.63;;;;;;;;;;5111642;27;20661;-79
2021/11/17 16:59:45;;;;;;;16.77;6.43;;;;;;;;;;5110781;28;20221;-78
2021/11/17 17:02:13;;;;;;;20.10;6.23;;;;;;;;;;5108247;27;20221;-78
2021/11/17 17:04:41;;;;;;;11.53;5.90;;;;;;;;;;5110490;27;20205;-77
2021/11/17 17:07:09;;;;;;;11.50;6.33;;;;;;;;;;5112704;27;20288;-77
2021/11/17 17:09:37;;;;;;;19.63;7.27;;;;;;;;;;5103383;27;20226;-77
2021/11/17 17:12:06;;;;;;;15.93;8.37;;;;;;;;;;5113721;27;20282;-77
2021/11/17 17:14:34;;;;;;;19.97;8.60;;;;;;;;;;5102463;28;20763;-77
2021/11/17 17:17:01;;;;;;;16.33;7.90;;;;;;;;;;5105834;28;20882;-77
2021/11/17 17:19:30;;;;;;;17.00;8.47;;;;;;;;;;5109588;28;20252;-77
2021/11/17 17:21:57;;;;;;;14.17;7.57;;;;;;;;;;5088502;28;20201;-77